createdAt,value
2022-10-09T00:00:07.577Z,67.93
2022-10-09T00:03:01.805Z,67.94
2022-10-09T00:05:31.275Z,68.03
2022-10-09T00:08:00.258Z,68.18
2022-10-09T00:10:29.693Z,68.08
2022-10-09T00:12:58.575Z,68.03
2022-10-09T00:15:27.564Z,67.99
2022-10-09T00:17:56.326Z,68.00
2022-10-09T00:20:25.302Z,68.09
2022-10-09T00:22:54.838Z,68.20
2022-10-09T00:25:23.771Z,68.27
2022-10-09T00:27:52.615Z,68.17
2022-10-09T00:30:21.413Z,68.11
2022-10-09T00:32:50.463Z,68.15
2022-10-09T00:35:20.200Z,68.11
2022-10-09T00:37:49.188Z,68.14
2022-10-09T00:40:17.993Z,68.14
2022-10-09T00:42:49.016Z,68.13
2022-10-09T00:45:21.136Z,68.14
2022-10-09T00:48:12.565Z,68.13
2022-10-09T00:50:52.138Z,68.09
2022-10-09T00:53:24.533Z,68.29
2022-10-09T00:55:53.724Z,68.34
2022-10-09T00:58:24.445Z,68.27
2022-10-09T01:00:54.114Z,68.27
2022-10-09T01:03:23.702Z,68.31
2022-10-09T01:06:34.753Z,68.36
2022-10-09T01:09:20.125Z,68.39
2022-10-09T01:12:52.926Z,68.44
2022-10-09T01:16:23.974Z,68.54
2022-10-09T01:19:21.809Z,68.48
2022-10-09T01:22:22.747Z,68.46
2022-10-09T01:25:11.274Z,68.52
2022-10-09T01:27:42.218Z,68.52
2022-10-09T01:30:13.389Z,68.55
2022-10-09T01:32:49.755Z,68.49
2022-10-09T01:35:21.721Z,68.57
2022-10-09T01:37:53.581Z,68.70
2022-10-09T01:40:25.535Z,68.67
2022-10-09T01:42:55.571Z,68.65
2022-10-09T01:45:24.844Z,68.56
2022-10-09T01:47:53.648Z,68.69
2022-10-09T01:50:35.154Z,68.77
2022-10-09T01:53:11.675Z,68.82
2022-10-09T01:56:07.530Z,68.97
2022-10-09T01:58:55.078Z,68.97
2022-10-09T02:01:35.522Z,69.03
2022-10-09T02:04:10.558Z,68.94
2022-10-09T02:06:41.527Z,69.00
2022-10-09T02:09:16.911Z,69.07
2022-10-09T02:11:53.159Z,69.18
2022-10-09T02:14:24.623Z,69.13
2022-10-09T02:17:06.194Z,69.18
2022-10-09T02:19:48.624Z,69.27
2022-10-09T02:22:28.159Z,69.27
2022-10-09T02:25:03.667Z,69.33
2022-10-09T02:27:33.718Z,69.45
2022-10-09T02:30:04.872Z,69.49
2022-10-09T02:32:33.987Z,69.49
2022-10-09T02:35:05.792Z,69.60
2022-10-09T02:37:34.655Z,69.68
2022-10-09T02:40:09.755Z,69.76
2022-10-09T02:42:39.475Z,69.86
2022-10-09T02:45:09.369Z,69.94
2022-10-09T02:47:38.283Z,69.85
2022-10-09T02:50:08.237Z,69.85
2022-10-09T02:52:37.076Z,70.01
2022-10-09T02:55:06.153Z,69.91
2022-10-09T02:57:41.944Z,69.95
2022-10-09T03:00:11.892Z,69.97
2022-10-09T03:02:40.856Z,70.16
2022-10-09T03:05:11.401Z,70.11
2022-10-09T03:07:40.255Z,69.99
2022-10-09T03:10:10.570Z,69.96
2022-10-09T03:12:40.440Z,70.04
2022-10-09T03:15:10.073Z,70.15
2022-10-09T03:17:39.034Z,70.07
2022-10-09T03:20:08.514Z,70.16
2022-10-09T03:22:37.309Z,70.24
2022-10-09T03:25:07.229Z,70.29
2022-10-09T03:27:38.451Z,70.29
2022-10-09T03:30:07.923Z,70.28
2022-10-09T03:32:36.721Z,70.40
2022-10-09T03:35:07.490Z,70.52
2022-10-09T03:37:36.273Z,70.59
2022-10-09T03:40:05.975Z,70.50
2022-10-09T03:42:34.762Z,70.60
2022-10-09T03:45:06.769Z,70.66
2022-10-09T03:47:35.518Z,70.78
2022-10-09T03:50:04.783Z,70.97
2022-10-09T03:52:33.648Z,70.83
2022-10-09T03:55:04.526Z,70.96
2022-10-09T03:57:33.641Z,70.94
2022-10-09T04:00:03.200Z,71.02
2022-10-09T04:02:34.517Z,71.10
2022-10-09T04:05:03.729Z,71.16
2022-10-09T04:07:33.660Z,71.09
2022-10-09T04:10:04.415Z,71.17
2022-10-09T04:12:35.845Z,71.22
2022-10-09T04:15:05.593Z,71.28
2022-10-09T04:17:34.474Z,71.24
2022-10-09T04:20:06.314Z,71.30
2022-10-09T04:22:35.358Z,71.30
2022-10-09T04:25:04.814Z,71.23
2022-10-09T04:27:33.866Z,71.33
2022-10-09T04:30:06.000Z,71.26
2022-10-09T04:32:37.003Z,71.32
2022-10-09T04:35:06.716Z,71.45
2022-10-09T04:37:36.894Z,71.56
2022-10-09T04:40:06.141Z,71.50
2022-10-09T04:42:35.022Z,71.54
2022-10-09T04:45:04.821Z,71.63
2022-10-09T04:47:34.442Z,71.64
2022-10-09T04:50:04.224Z,71.67
2022-10-09T04:52:33.647Z,71.59
2022-10-09T04:55:02.604Z,71.67
2022-10-09T04:57:33.952Z,71.66
2022-10-09T05:00:06.887Z,71.69
2022-10-09T05:02:38.607Z,71.81
2022-10-09T05:05:08.237Z,71.85
2022-10-09T05:07:37.089Z,71.91
2022-10-09T05:10:07.448Z,72.04
2022-10-09T05:12:36.191Z,72.12
2022-10-09T05:15:06.079Z,72.25
2022-10-09T05:17:37.230Z,72.18
2022-10-09T05:20:09.665Z,72.23
2022-10-09T05:22:39.975Z,72.20
2022-10-09T05:25:12.290Z,72.35
2022-10-09T05:27:41.177Z,72.28
2022-10-09T05:30:11.025Z,72.38
2022-10-09T05:32:39.886Z,72.40
2022-10-09T05:35:09.001Z,72.48
2022-10-09T05:37:37.856Z,72.58
2022-10-09T05:40:07.849Z,72.51
2022-10-09T05:42:36.698Z,72.62
2022-10-09T05:45:06.588Z,72.50
2022-10-09T05:47:35.414Z,72.59
2022-10-09T05:50:09.967Z,72.72
2022-10-09T05:52:40.144Z,72.77
2022-10-09T05:55:09.254Z,72.76
2022-10-09T05:57:38.189Z,72.66
2022-10-09T06:00:08.190Z,72.83
2022-10-09T06:02:41.383Z,72.86
2022-10-09T06:05:10.296Z,72.83
2022-10-09T06:07:39.102Z,72.73
2022-10-09T06:10:08.520Z,72.61
2022-10-09T06:12:37.423Z,72.50
2022-10-09T06:15:07.110Z,72.42
2022-10-09T06:17:35.982Z,72.34
2022-10-09T06:20:05.442Z,72.33
2022-10-09T06:22:34.418Z,72.41
2022-10-09T06:25:03.495Z,72.31
2022-10-09T06:27:32.607Z,72.36
2022-10-09T06:30:01.673Z,72.44
2022-10-09T06:32:30.725Z,72.29
2022-10-09T06:35:02.642Z,72.35
2022-10-09T06:37:34.225Z,72.35
2022-10-09T06:40:03.421Z,72.30
2022-10-09T06:42:32.550Z,72.10
2022-10-09T06:45:01.581Z,72.03
2022-10-09T06:47:35.104Z,72.10
2022-10-09T06:50:09.901Z,71.91
2022-10-09T06:52:43.040Z,71.92
2022-10-09T06:55:14.097Z,71.81
2022-10-09T06:58:11.253Z,71.96
2022-10-09T07:01:57.243Z,71.87
2022-10-09T07:04:45.303Z,71.39
2022-10-09T07:07:54.404Z,71.03
2022-10-09T07:10:40.695Z,70.44
2022-10-09T07:13:16.005Z,70.10
2022-10-09T07:16:09.917Z,70.38
2022-10-09T07:18:48.594Z,71.43
2022-10-09T07:21:24.602Z,71.53
2022-10-09T07:24:18.237Z,70.94
2022-10-09T07:27:49.719Z,70.53
2022-10-09T07:30:34.823Z,69.22
2022-10-09T07:33:04.457Z,67.59
2022-10-09T07:39:11.728Z,64.94
2022-10-09T07:41:55.273Z,64.47
2022-10-09T07:53:53.779Z,61.72
2022-10-09T07:56:54.596Z,60.10
2022-10-09T07:59:46.237Z,59.31
2022-10-09T08:02:24.225Z,58.88
2022-10-09T08:04:53.784Z,58.56
2022-10-09T08:07:23.186Z,58.58
2022-10-09T08:10:03.036Z,58.52
2022-10-09T08:12:32.750Z,57.60
2022-10-09T08:15:12.712Z,56.90
2022-10-09T08:17:47.279Z,55.62
2022-10-09T08:20:21.851Z,54.66
2022-10-09T08:22:59.663Z,55.48
2022-10-09T08:25:39.778Z,54.73
2022-10-09T08:28:19.778Z,53.81
2022-10-09T08:31:18.515Z,54.04
2022-10-09T08:33:55.678Z,53.56
2022-10-09T08:36:35.072Z,54.09
2022-10-09T08:39:06.398Z,55.08
2022-10-09T08:41:44.545Z,56.00
2022-10-09T08:44:36.402Z,56.33
2022-10-09T08:47:26.115Z,55.63
2022-10-09T08:50:20.156Z,54.25
2022-10-09T08:53:13.308Z,53.64
2022-10-09T08:55:57.075Z,53.76
2022-10-09T08:58:34.713Z,54.91
2022-10-09T09:02:18.203Z,54.93
2022-10-09T09:05:15.768Z,55.15
2022-10-09T09:08:06.740Z,55.47
2022-10-09T09:10:48.188Z,55.81
2022-10-09T09:13:31.059Z,56.17
2022-10-09T09:17:15.270Z,56.55
2022-10-09T09:20:08.583Z,57.52
2022-10-09T09:22:50.352Z,57.26
2022-10-09T09:25:27.174Z,56.33
2022-10-09T09:28:13.861Z,55.94
2022-10-09T09:31:02.300Z,55.17
2022-10-09T09:34:12.262Z,54.65
2022-10-09T09:37:00.385Z,54.34
2022-10-09T09:43:49.882Z,53.12
2022-10-09T09:47:01.284Z,53.29
2022-10-09T09:50:01.462Z,52.79
2022-10-09T09:52:46.566Z,53.22
2022-10-09T09:55:30.257Z,52.94
2022-10-09T09:58:17.982Z,52.46
2022-10-09T10:01:08.597Z,51.71
2022-10-09T10:09:36.883Z,49.56
2022-10-09T10:12:25.916Z,47.98
2022-10-09T10:15:36.143Z,47.46
2022-10-09T10:18:20.664Z,47.56
2022-10-09T10:21:14.861Z,47.37
2022-10-09T10:29:43.538Z,44.69
2022-10-09T10:32:54.651Z,44.20
2022-10-09T10:35:38.586Z,43.71
2022-10-09T10:38:44.437Z,43.73
2022-10-09T10:41:34.262Z,45.29
2022-10-09T10:44:50.020Z,47.30
2022-10-09T10:47:35.902Z,45.73
2022-10-09T10:50:14.199Z,44.12
2022-10-09T10:52:59.192Z,43.86
2022-10-09T10:56:10.494Z,45.05
2022-10-09T10:59:39.532Z,46.69
2022-10-09T11:02:42.664Z,46.47
2022-10-09T11:06:24.030Z,45.39
2022-10-09T11:10:18.012Z,44.78
2022-10-09T11:13:28.170Z,44.49
2022-10-09T11:16:51.994Z,44.90
2022-10-09T11:23:28.751Z,45.69
2022-10-09T11:26:48.849Z,46.11
2022-10-09T11:30:09.435Z,46.10
2022-10-09T11:32:57.145Z,46.59
2022-10-09T11:39:09.178Z,47.72
2022-10-09T11:41:43.532Z,47.95
2022-10-09T11:44:50.441Z,47.88
2022-10-09T11:47:39.109Z,47.91
2022-10-09T11:50:47.870Z,48.14
2022-10-09T11:53:41.346Z,48.69
2022-10-09T11:57:15.131Z,48.84
2022-10-09T12:01:03.462Z,48.97
2022-10-09T12:03:42.764Z,48.84
2022-10-09T12:06:20.390Z,48.82
2022-10-09T12:09:11.382Z,48.86
2022-10-09T12:12:12.594Z,48.93
2022-10-09T12:15:16.055Z,48.59
2022-10-09T12:17:53.754Z,48.15
2022-10-09T12:20:31.204Z,47.99
2022-10-09T12:23:43.335Z,47.59
2022-10-09T12:26:37.776Z,47.44
2022-10-09T12:34:59.805Z,47.41
2022-10-09T12:37:51.577Z,47.55
2022-10-09T12:40:33.377Z,47.55
2022-10-09T12:43:21.547Z,47.24
2022-10-09T12:45:58.698Z,47.07
2022-10-09T12:48:43.012Z,46.73
2022-10-09T12:51:33.889Z,46.83
2022-10-09T12:54:10.499Z,46.53
2022-10-09T12:56:39.809Z,46.19
2022-10-09T12:59:12.981Z,46.00
2022-10-09T13:06:52.622Z,45.46
2022-10-09T13:09:32.712Z,45.53
2022-10-09T13:12:28.897Z,45.69
2022-10-09T13:15:05.287Z,46.10
2022-10-09T13:17:40.777Z,46.49
2022-10-09T13:20:12.645Z,46.49
2022-10-09T13:22:52.886Z,46.74
2022-10-09T13:25:27.444Z,46.83
2022-10-09T13:27:57.203Z,46.80
2022-10-09T13:30:27.359Z,46.72
2022-10-09T13:32:56.748Z,46.79
2022-10-09T14:01:43.453Z,49.08
2022-10-09T14:04:12.578Z,49.01
2022-10-09T14:06:41.531Z,49.13
2022-10-09T14:09:14.211Z,49.28
2022-10-09T14:11:43.469Z,49.13
2022-10-09T14:14:13.824Z,48.95
2022-10-09T14:16:43.049Z,48.81
2022-10-09T14:19:14.358Z,48.68
2022-10-09T14:21:43.346Z,48.58
2022-10-09T14:24:14.526Z,48.28
2022-10-09T14:26:48.365Z,48.12
2022-10-09T14:29:20.549Z,47.95
2022-10-09T14:31:54.041Z,47.88
2022-10-09T14:34:28.061Z,47.86
2022-10-09T14:36:59.162Z,47.80
2022-10-09T14:39:33.196Z,47.79
2022-10-09T14:42:18.140Z,47.79
2022-10-09T14:45:34.183Z,47.86
2022-10-09T14:48:10.421Z,47.85
2022-10-09T14:50:41.573Z,47.72
2022-10-09T14:53:12.035Z,47.67
2022-10-09T14:55:56.456Z,47.70
2022-10-09T14:58:37.366Z,47.62
2022-10-09T15:01:18.690Z,47.66
2022-10-09T15:03:54.998Z,47.80
2022-10-09T15:06:30.787Z,47.87
2022-10-09T15:09:04.561Z,47.99
2022-10-09T15:11:39.055Z,48.23
2022-10-09T15:14:08.536Z,48.12
2022-10-09T15:16:45.877Z,48.14
2022-10-09T15:19:19.580Z,48.18
2022-10-09T15:21:56.605Z,48.24
2022-10-09T15:24:28.415Z,48.25
2022-10-09T15:27:02.300Z,48.32
2022-10-09T15:29:36.719Z,48.39
2022-10-09T15:32:09.757Z,48.57
2022-10-09T15:34:41.141Z,48.69
2022-10-09T15:37:19.127Z,48.86
2022-10-09T15:39:55.372Z,48.96
2022-10-09T15:42:45.475Z,49.05
2022-10-09T15:45:19.435Z,49.19
2022-10-09T15:48:01.733Z,49.18
2022-10-09T15:50:35.934Z,49.27
2022-10-09T15:53:13.594Z,49.38
2022-10-09T15:55:45.969Z,49.55
2022-10-09T15:58:31.639Z,49.73
2022-10-09T16:02:01.335Z,50.04
2022-10-09T16:04:40.282Z,50.38
2022-10-09T16:07:41.626Z,50.79
2022-10-09T16:10:23.001Z,51.07
2022-10-09T16:12:58.419Z,51.40
2022-10-09T16:15:30.439Z,51.71
2022-10-09T16:18:08.135Z,52.00
2022-10-09T16:24:22.910Z,52.82
2022-10-09T16:26:58.315Z,53.13
2022-10-09T16:29:53.401Z,53.40
2022-10-09T16:32:25.019Z,53.74
2022-10-09T16:34:58.311Z,54.09
2022-10-09T16:37:36.276Z,54.45
2022-10-09T16:40:09.040Z,54.76
2022-10-09T16:42:38.178Z,55.18
2022-10-09T16:45:10.485Z,55.47
2022-10-09T16:47:47.906Z,55.85
2022-10-09T16:50:17.033Z,56.03
2022-10-09T16:52:50.426Z,56.41
2022-10-09T16:55:19.264Z,56.71
2022-10-09T16:57:48.838Z,57.01
2022-10-09T17:00:19.379Z,57.31
2022-10-09T17:02:48.574Z,57.75
2022-10-09T17:05:20.686Z,58.05
2022-10-09T17:07:50.241Z,58.20
2022-10-09T17:10:19.816Z,58.23
2022-10-09T17:12:51.239Z,58.23
2022-10-09T17:15:22.262Z,58.33
2022-10-09T17:17:51.475Z,58.66
2022-10-09T17:20:20.671Z,59.06
2022-10-09T17:22:49.959Z,59.07
2022-10-09T17:25:19.924Z,59.15
2022-10-09T17:27:49.030Z,59.22
2022-10-09T17:30:18.280Z,59.47
2022-10-09T17:32:47.694Z,59.62
2022-10-09T17:35:19.483Z,59.75
2022-10-09T17:37:48.780Z,59.93
2022-10-09T17:40:18.046Z,60.22
2022-10-09T17:42:48.022Z,60.49
2022-10-09T17:45:17.591Z,60.68
2022-10-09T17:47:51.031Z,60.74
2022-10-09T17:50:20.123Z,60.95
2022-10-09T17:52:49.655Z,61.19
2022-10-09T17:55:19.027Z,61.37
2022-10-09T17:57:48.501Z,61.43
2022-10-09T18:00:21.709Z,61.53
2022-10-09T18:02:51.092Z,61.64
2022-10-09T18:05:24.712Z,61.82
2022-10-09T18:07:53.756Z,62.14
2022-10-09T18:10:23.082Z,62.25
2022-10-09T18:12:53.566Z,62.54
2022-10-09T18:15:24.945Z,62.65
2022-10-09T18:17:55.505Z,62.68
2022-10-09T18:20:24.814Z,62.91
2022-10-09T18:22:56.779Z,63.17
2022-10-09T18:25:26.276Z,63.57
2022-10-09T18:27:55.599Z,63.94
2022-10-09T18:30:25.867Z,63.78
2022-10-09T18:32:55.280Z,63.81
2022-10-09T18:35:26.023Z,63.98
2022-10-09T18:37:55.836Z,63.90
2022-10-09T18:40:27.668Z,64.05
2022-10-09T18:42:57.274Z,64.04
2022-10-09T18:45:27.453Z,64.06
2022-10-09T18:48:04.601Z,64.25
2022-10-09T18:50:34.653Z,64.32
2022-10-09T18:53:05.181Z,64.18
2022-10-09T18:55:34.884Z,64.25
2022-10-09T18:58:06.171Z,64.32
2022-10-09T19:00:42.648Z,64.39
2022-10-09T19:03:14.277Z,64.57
2022-10-09T19:05:45.080Z,64.47
2022-10-09T19:08:14.269Z,64.48
2022-10-09T19:10:50.007Z,64.42
2022-10-09T19:13:20.616Z,64.61
2022-10-09T19:15:53.923Z,64.64
2022-10-09T19:18:30.209Z,64.88
2022-10-09T19:21:07.749Z,64.91
2022-10-09T19:23:39.666Z,64.86
2022-10-09T19:26:08.850Z,64.90
2022-10-09T19:28:38.874Z,64.90
2022-10-09T19:31:10.180Z,64.82
2022-10-09T19:33:40.606Z,64.79
2022-10-09T19:36:13.685Z,64.92
2022-10-09T19:38:53.035Z,64.99
2022-10-09T19:41:22.702Z,64.94
2022-10-09T19:44:01.935Z,64.98
2022-10-09T19:46:54.030Z,65.10
2022-10-09T19:49:36.374Z,65.21
2022-10-09T19:52:12.598Z,65.21
2022-10-09T19:54:43.143Z,65.06
2022-10-09T19:57:17.656Z,65.01
2022-10-09T20:00:08.374Z,65.12
2022-10-09T20:02:44.503Z,65.24
2022-10-09T20:05:24.409Z,65.37
2022-10-09T20:07:56.803Z,65.38
2022-10-09T20:10:26.496Z,65.60
2022-10-09T20:13:12.539Z,65.60
2022-10-09T20:15:53.876Z,65.54
2022-10-09T20:18:31.764Z,65.68
2022-10-09T20:21:03.091Z,65.67
2022-10-09T20:23:45.905Z,65.79
2022-10-09T20:26:21.399Z,65.96
2022-10-09T20:28:54.060Z,66.09
2022-10-09T20:31:26.918Z,66.03
2022-10-09T20:33:57.379Z,66.12
2022-10-09T20:36:35.376Z,66.20
2022-10-09T20:39:13.455Z,66.19
2022-10-09T20:41:46.604Z,66.31
2022-10-09T20:44:15.675Z,66.55
2022-10-09T20:46:44.670Z,66.53
2022-10-09T20:49:21.313Z,66.46
2022-10-09T20:51:56.330Z,66.83
2022-10-09T20:54:31.949Z,66.85
2022-10-09T20:57:05.005Z,66.96
2022-10-09T20:59:41.802Z,66.98
2022-10-09T21:02:14.505Z,66.99
2022-10-09T21:04:50.268Z,67.05
2022-10-09T21:07:24.212Z,67.32
2022-10-09T21:10:08.852Z,67.51
2022-10-09T21:12:47.253Z,67.73
2022-10-09T21:15:32.796Z,67.81
2022-10-09T21:18:06.066Z,67.97
2022-10-09T21:20:49.497Z,68.05
2022-10-09T21:23:23.314Z,68.10
2022-10-09T21:26:05.899Z,67.86
2022-10-09T21:28:41.397Z,68.04
2022-10-09T21:31:24.051Z,68.35
2022-10-09T21:34:18.909Z,68.41
2022-10-09T21:40:20.332Z,68.58
2022-10-09T21:43:12.436Z,68.79
2022-10-09T21:46:00.343Z,68.94
2022-10-09T21:48:33.124Z,68.93
2022-10-09T21:51:02.972Z,68.89
2022-10-09T21:53:35.358Z,68.86
2022-10-09T21:56:07.502Z,69.12
2022-10-09T21:58:41.952Z,68.99
2022-10-09T22:01:13.132Z,69.03
2022-10-09T22:03:42.230Z,68.92
2022-10-09T22:06:18.962Z,68.99
2022-10-09T22:08:48.812Z,69.08
2022-10-09T22:11:18.003Z,69.24
2022-10-09T22:13:48.316Z,69.26
2022-10-09T22:16:17.220Z,69.36
2022-10-09T22:18:46.079Z,69.47
2022-10-09T22:21:16.976Z,69.59
2022-10-09T22:23:47.190Z,69.72
2022-10-09T22:26:21.219Z,69.90
2022-10-09T22:28:54.172Z,70.08
2022-10-09T22:31:29.051Z,70.27
2022-10-09T22:34:03.209Z,70.27
2022-10-09T22:36:35.799Z,70.28
2022-10-09T22:39:09.516Z,70.35
2022-10-09T22:41:39.074Z,70.62
2022-10-09T22:44:10.827Z,70.67
2022-10-09T22:46:45.568Z,70.68
2022-10-09T22:49:17.210Z,70.88
2022-10-09T22:51:49.029Z,70.96
2022-10-09T22:54:22.396Z,70.95
2022-10-09T22:56:52.846Z,70.96
2022-10-09T22:59:28.141Z,71.02
2022-10-09T23:02:00.498Z,71.00
2022-10-09T23:04:34.148Z,71.02
2022-10-09T23:07:05.631Z,70.97
2022-10-09T23:09:44.338Z,70.95
2022-10-09T23:12:18.273Z,71.00
2022-10-09T23:14:51.942Z,70.93
2022-10-09T23:17:21.082Z,70.93
2022-10-09T23:19:57.330Z,71.13
2022-10-09T23:22:31.487Z,71.29
2022-10-09T23:25:52.973Z,71.31
2022-10-09T23:28:21.890Z,71.42
2022-10-09T23:30:53.980Z,71.41
2022-10-09T23:33:22.807Z,71.40
2022-10-09T23:35:55.697Z,71.59
2022-10-09T23:38:25.108Z,71.57
2022-10-09T23:41:05.077Z,71.49
2022-10-09T23:43:37.830Z,71.41
2022-10-09T23:46:11.044Z,71.40
2022-10-09T23:48:39.992Z,71.55
2022-10-09T23:51:14.367Z,71.76
2022-10-09T23:53:46.766Z,71.69
2022-10-09T23:56:23.662Z,71.88
2022-10-09T23:58:54.114Z,72.06
